Time;durP1;ratioP1;P1;durP2;ratioP2;P2;SDS_P1;SDS_P2;PMS_P1;PMS_P2;Temp;Humidity;BMP_temperature;BMP_pressure;BME280_temperature;BME280_humidity;BME280_pressure;Samples;Min_cycle;Max_cycle;Signal;HPM_P1;HPM_P2
2022/10/16 00:00:27;;;;;;;;;;;;;;;21.27;63.50;99181.88;7314483;19;129652;-39
2022/10/16 00:02:52;;;;;;;;;;;;;;;21.26;63.37;99190.72;7314078;19;130395;-39
2022/10/16 00:05:17;;;;;;;;;;;;;;;21.24;63.12;99187.41;7315281;19;129838;-39
2022/10/16 00:07:42;;;;;;;;;;;;;;;21.22;63.41;99184.13;7312256;19;129313;-37
2022/10/16 00:10:07;;;;;;;;;;;;;;;21.24;63.45;99190.03;7312952;19;129675;-40
2022/10/16 00:12:33;;;;;;;;;;;;;;;21.27;63.07;99192.34;7313925;19;129622;-39
2022/10/16 00:14:58;;;;;;;;;;;;;;;21.25;63.46;99194.31;7315691;19;129059;-41
2022/10/16 00:17:23;;;;;;;;;;;;;;;21.25;63.39;99204.78;7312295;19;129811;-39
2022/10/16 00:19:48;;;;;;;;;;;;;;;21.22;63.34;99204.25;7313875;19;129772;-38
2022/10/16 00:22:14;;;;;;;;;;;;;;;21.23;63.49;99204.09;7312484;19;129242;-40
2022/10/16 00:24:39;;;;;;;;;;;;;;;21.23;63.47;99209.31;7315535;19;129056;-39
2022/10/16 00:27:04;;;;;;;;;;;;;;;21.24;63.84;99210.94;7311276;19;130000;-39
2022/10/16 00:29:29;;;;;;;;;;;;;;;21.24;63.74;99207.50;7315281;19;129253;-39
2022/10/16 00:31:54;;;;;;;;;;;;;;;21.23;63.64;99206.69;7311768;19;130428;-40
2022/10/16 00:34:20;;;;;;;;;;;;;;;21.25;63.12;99209.16;7315537;19;129288;-38
2022/10/16 00:36:45;;;;;;;;;;;;;;;21.25;63.56;99215.22;7314318;19;129477;-39
2022/10/16 00:39:10;;;;;;;;;;;;;;;21.25;63.24;99214.41;7312510;19;129832;-40
2022/10/16 00:41:35;;;;;;;;;;;;;;;21.26;63.57;99216.84;7311426;19;129757;-39
2022/10/16 00:44:03;;;;;;;;;;;;;;;21.25;63.18;99215.22;7312832;19;129222;-40
2022/10/16 00:46:28;;;;;;;;;;;;;;;21.26;63.53;99213.41;7311434;19;130153;-39
2022/10/16 00:49:14;;;;;;;;;;;;;;;21.28;63.49;99219.31;7314236;19;129711;-36
2022/10/16 00:51:45;;;;;;;;;;;;;;;21.27;63.59;99213.25;7312122;19;129438;-39
2022/10/16 00:54:13;;;;;;;;;;;;;;;21.26;62.97;99216.84;7314737;19;129028;-36
2022/10/16 00:56:38;;;;;;;;;;;;;;;21.24;63.54;99225.81;7309806;19;129518;-39
2022/10/16 00:59:06;;;;;;;;;;;;;;;21.26;62.96;99227.31;7313230;19;130422;-39
2022/10/16 01:01:31;;;;;;;;;;;;;;;21.24;63.65;99221.41;7312624;19;128830;-41
2022/10/16 01:03:56;;;;;;;;;;;;;;;21.24;63.45;99226.63;7315250;19;129597;-40
2022/10/16 01:06:24;;;;;;;;;;;;;;;21.17;63.23;99211.69;7313450;19;129536;-40
2022/10/16 01:08:55;;;;;;;;;;;;;;;21.26;62.92;99224.72;7312981;19;131071;-39
2022/10/16 01:11:32;;;;;;;;;;;;;;;21.31;62.77;99225.09;7312828;19;128980;-37
2022/10/16 01:13:59;;;;;;;;;;;;;;;21.29;63.51;99221.78;7314272;19;129583;-39
2022/10/16 01:16:31;;;;;;;;;;;;;;;21.25;63.38;99225.69;7311210;19;130236;-38
2022/10/16 01:19:12;;;;;;;;;;;;;;;21.24;63.88;99224.03;7311328;19;129691;-39
2022/10/16 01:21:43;;;;;;;;;;;;;;;21.22;63.07;99220.72;7311016;19;130055;-39
2022/10/16 01:24:20;;;;;;;;;;;;;;;21.24;63.86;99229.25;7313224;19;130509;-39
2022/10/16 01:26:45;;;;;;;;;;;;;;;21.27;63.75;99228.94;7312508;19;129727;-39
2022/10/16 01:29:14;;;;;;;;;;;;;;;21.26;63.04;99222.09;7311383;19;130814;-39
2022/10/16 01:31:40;;;;;;;;;;;;;;;21.18;63.48;99223.78;7309467;19;128938;-39
2022/10/16 01:34:10;;;;;;;;;;;;;;;21.27;63.69;99239.41;7310943;19;130164;-39
2022/10/16 01:36:45;;;;;;;;;;;;;;;21.26;63.53;99236.94;7308881;19;130151;-39
2022/10/16 01:39:11;;;;;;;;;;;;;;;21.31;63.16;99240.78;7310884;19;130638;-39
2022/10/16 01:41:40;;;;;;;;;;;;;;;21.30;63.08;99243.53;7311589;19;129357;-39
2022/10/16 01:44:08;;;;;;;;;;;;;;;21.29;63.49;99245.31;7314003;19;130360;-40
2022/10/16 01:46:35;;;;;;;;;;;;;;;21.27;63.79;99236.78;7310323;19;129453;-39
2022/10/16 01:49:02;;;;;;;;;;;;;;;21.27;63.13;99238.59;7313258;19;129303;-38
2022/10/16 01:51:28;;;;;;;;;;;;;;;21.31;63.20;99235.53;7308944;19;129352;-39
2022/10/16 01:53:55;;;;;;;;;;;;;;;21.29;63.23;99232.25;7310964;19;129869;-40
2022/10/16 01:56:22;;;;;;;;;;;;;;;21.27;63.62;99228.94;7309020;19;130029;-40
2022/10/16 01:59:07;;;;;;;;;;;;;;;21.30;63.69;99220.84;7309330;19;131149;-35
2022/10/16 02:01:35;;;;;;;;;;;;;;;21.26;62.91;99223.88;7308318;19;130543;-38
2022/10/16 02:04:03;;;;;;;;;;;;;;;21.29;63.83;99231.41;7311230;19;129685;-39
2022/10/16 02:06:29;;;;;;;;;;;;;;;21.27;63.18;99239.41;7311286;19;130291;-40
2022/10/16 02:08:54;;;;;;;;;;;;;;;21.27;63.68;99249.88;7312861;19;130619;-40
2022/10/16 02:11:20;;;;;;;;;;;;;;;21.23;63.25;99248.53;7311368;19;128740;-39
2022/10/16 02:13:47;;;;;;;;;;;;;;;21.21;63.76;99239.16;7312063;19;129631;-39
2022/10/16 02:16:13;;;;;;;;;;;;;;;21.27;63.20;99249.88;7311520;19;129397;-40
2022/10/16 02:18:39;;;;;;;;;;;;;;;21.25;63.13;99248.38;7309057;19;130144;-39
2022/10/16 02:21:16;;;;;;;;;;;;;;;21.29;63.61;99258.41;7309506;19;129282;-41
2022/10/16 02:23:45;;;;;;;;;;;;;;;21.26;63.47;99248.22;7310802;19;128834;-39
2022/10/16 02:26:15;;;;;;;;;;;;;;;21.28;63.61;99256.75;7310987;19;130436;-39
2022/10/16 02:28:44;;;;;;;;;;;;;;;21.27;63.79;99257.72;7310260;19;129603;-39
2022/10/16 02:31:11;;;;;;;;;;;;;;;21.25;63.87;99251.81;7311708;19;129496;-37
2022/10/16 02:33:38;;;;;;;;;;;;;;;21.24;63.72;99259.78;7307748;19;129215;-38
2022/10/16 02:36:04;;;;;;;;;;;;;;;21.26;63.69;99257.84;7308582;19;130091;-40
2022/10/16 02:38:30;;;;;;;;;;;;;;;21.27;63.46;99254.28;7310720;19;129560;-41
2022/10/16 02:40:55;;;;;;;;;;;;;;;21.16;63.46;99230.94;7309752;19;130327;-40
2022/10/16 02:43:21;;;;;;;;;;;;;;;21.21;63.43;99255.69;7311064;19;129007;-40
2022/10/16 02:45:46;;;;;;;;;;;;;;;21.18;63.52;99248.16;7309630;19;129049;-38
2022/10/16 02:48:11;;;;;;;;;;;;;;;21.27;63.54;99265.56;7310718;19;129356;-38
2022/10/16 02:50:37;;;;;;;;;;;;;;;21.18;63.50;99245.53;7308172;19;128781;-40
2022/10/16 02:53:02;;;;;;;;;;;;;;;21.28;63.75;99248.91;7309099;19;129361;-39
2022/10/16 02:55:27;;;;;;;;;;;;;;;21.26;63.95;99248.22;7306380;19;129732;-37
2022/10/16 02:57:53;;;;;;;;;;;;;;;21.26;63.71;99253.47;7310309;19;130272;-37
2022/10/16 03:00:19;;;;;;;;;;;;;;;21.20;63.31;99233.16;7307570;19;129361;-38
2022/10/16 03:02:44;;;;;;;;;;;;;;;21.31;63.49;99247.78;7309745;19;130025;-39
2022/10/16 03:05:10;;;;;;;;;;;;;;;21.25;63.53;99244.00;7313434;19;129462;-39
2022/10/16 03:07:35;;;;;;;;;;;;;;;21.25;63.54;99233.53;7315114;19;129864;-37
2022/10/16 03:10:00;;;;;;;;;;;;;;;21.30;63.54;99243.53;7316148;19;129006;-39
2022/10/16 03:12:26;;;;;;;;;;;;;;;21.29;63.59;99242.72;7315705;19;129021;-40
2022/10/16 03:14:52;;;;;;;;;;;;;;;21.22;63.26;99230.38;7317049;19;130216;-39
2022/10/16 03:17:17;;;;;;;;;;;;;;;21.27;63.16;99255.09;7315186;19;130560;-38
2022/10/16 03:19:42;;;;;;;;;;;;;;;21.21;63.10;99237.38;7316445;19;129214;-40
2022/10/16 03:22:08;;;;;;;;;;;;;;;21.29;63.54;99253.16;7316215;19;129258;-39
2022/10/16 03:24:33;;;;;;;;;;;;;;;21.30;63.19;99259.22;7316932;19;130192;-40
2022/10/16 03:26:58;;;;;;;;;;;;;;;21.32;63.41;99254.69;7314661;19;129459;-39
2022/10/16 03:29:25;;;;;;;;;;;;;;;21.26;63.73;99261.31;7316400;19;128947;-37
2022/10/16 03:31:50;;;;;;;;;;;;;;;21.28;63.49;99261.16;7315007;19;129896;-40
2022/10/16 03:34:16;;;;;;;;;;;;;;;21.28;63.64;99269.84;7314805;19;130502;-37
2022/10/16 03:36:41;;;;;;;;;;;;;;;21.27;63.91;99268.16;7311962;19;131057;-41
2022/10/16 03:39:06;;;;;;;;;;;;;;;21.24;63.93;99271.09;7314875;19;129097;-38
2022/10/16 03:41:31;;;;;;;;;;;;;;;21.26;63.04;99263.09;7314311;19;129181;-39
2022/10/16 03:43:57;;;;;;;;;;;;;;;21.26;63.54;99263.91;7314793;19;130939;-38
2022/10/16 03:46:22;;;;;;;;;;;;;;;21.27;63.69;99265.56;7315339;19;129849;-40
2022/10/16 03:48:48;;;;;;;;;;;;;;;21.28;63.78;99269.84;7315099;19;129008;-40
2022/10/16 03:51:13;;;;;;;;;;;;;;;21.30;63.51;99270.53;7314568;19;129180;-41
2022/10/16 03:53:38;;;;;;;;;;;;;;;21.28;63.46;99272.44;7313248;19;130228;-39
2022/10/16 03:56:03;;;;;;;;;;;;;;;21.14;63.87;99269.50;7312217;19;131384;-39
2022/10/16 03:58:29;;;;;;;;;;;;;;;21.25;63.74;99288.44;7314033;19;129301;-39
2022/10/16 04:00:54;;;;;;;;;;;;;;;21.16;63.86;99265.75;7311464;19;128819;-39
2022/10/16 04:03:19;;;;;;;;;;;;;;;21.21;63.43;99276.59;7315421;19;130316;-39
2022/10/16 04:05:45;;;;;;;;;;;;;;;21.23;63.68;99285.13;7314100;19;130138;-39
2022/10/16 04:08:10;;;;;;;;;;;;;;;21.27;63.88;99283.06;7315515;19;128977;-41
2022/10/16 04:10:35;;;;;;;;;;;;;;;21.26;63.37;99279.59;7313200;19;129072;-39
2022/10/16 04:13:00;;;;;;;;;;;;;;;21.25;63.27;99293.66;7314539;19;130656;-40
2022/10/16 04:15:26;;;;;;;;;;;;;;;21.27;63.47;99291.69;7311572;19;130047;-38
2022/10/16 04:17:51;;;;;;;;;;;;;;;21.23;63.28;99284.31;7311320;19;130167;-38
2022/10/16 04:20:17;;;;;;;;;;;;;;;21.30;63.58;99291.44;7313046;19;129522;-39
2022/10/16 04:22:42;;;;;;;;;;;;;;;21.29;63.53;99300.22;7313360;19;129188;-40
2022/10/16 04:25:07;;;;;;;;;;;;;;;21.32;63.20;99299.94;7313678;19;129387;-38
2022/10/16 04:27:33;;;;;;;;;;;;;;;21.31;63.27;99300.09;7313319;19;129544;-39
2022/10/16 04:29:58;;;;;;;;;;;;;;;21.29;63.70;99305.47;7315454;19;129616;-39
2022/10/16 04:32:24;;;;;;;;;;;;;;;21.28;63.82;99293.38;7313102;19;130237;-38
2022/10/16 04:34:49;;;;;;;;;;;;;;;21.30;63.35;99301.91;7313988;19;129578;-40
2022/10/16 04:37:14;;;;;;;;;;;;;;;21.28;63.41;99305.59;7312765;19;129604;-40
2022/10/16 04:39:39;;;;;;;;;;;;;;;21.30;63.02;99311.53;7313073;19;129180;-38
2022/10/16 04:42:05;;;;;;;;;;;;;;;21.27;63.20;99317.84;7312955;19;131198;-39
2022/10/16 04:44:30;;;;;;;;;;;;;;;21.25;64.13;99313.75;7313341;19;129590;-39
2022/10/16 04:46:55;;;;;;;;;;;;;;;21.19;63.20;99294.22;7311399;19;129864;-38
2022/10/16 04:49:20;;;;;;;;;;;;;;;21.30;63.83;99301.91;7314091;19;129800;-39
2022/10/16 04:51:46;;;;;;;;;;;;;;;21.17;63.37;99295.34;7311838;19;130044;-36
2022/10/16 04:54:11;;;;;;;;;;;;;;;21.29;63.36;99305.47;7313747;19;130393;-36
2022/10/16 04:56:42;;;;;;;;;;;;;;;21.25;64.21;99304.13;7312127;19;128789;-38
2022/10/16 04:59:08;;;;;;;;;;;;;;;21.26;63.93;99297.91;7312202;19;130355;-39
2022/10/16 05:01:33;;;;;;;;;;;;;;;21.27;63.74;99307.38;7309751;19;129347;-39
2022/10/16 05:03:59;;;;;;;;;;;;;;;21.26;64.15;99299.69;7314714;19;130240;-39
2022/10/16 05:06:24;;;;;;;;;;;;;;;21.25;63.52;99309.34;7312704;19;129273;-40
2022/10/16 05:08:49;;;;;;;;;;;;;;;21.27;64.08;99307.38;7313866;19;129440;-38
2022/10/16 05:11:14;;;;;;;;;;;;;;;21.25;63.99;99309.34;7308825;19;130675;-38
2022/10/16 05:13:39;;;;;;;;;;;;;;;21.27;63.94;99312.63;7309481;19;129294;-40
2022/10/16 05:16:05;;;;;;;;;;;;;;;21.26;63.72;99321.44;7310809;19;129570;-39
2022/10/16 05:18:30;;;;;;;;;;;;;;;21.26;63.92;99313.59;7312483;19;130285;-40
2022/10/16 05:20:55;;;;;;;;;;;;;;;21.30;64.09;99316.75;7311115;19;130760;-40
2022/10/16 05:23:21;;;;;;;;;;;;;;;21.29;64.01;99318.53;7312807;19;132663;-38
2022/10/16 05:25:53;;;;;;;;;;;;;;;21.30;63.65;99321.97;7313426;19;130393;-37
2022/10/16 05:28:18;;;;;;;;;;;;;;;21.33;63.83;99327.75;7312371;19;129339;-39
2022/10/16 05:30:43;;;;;;;;;;;;;;;21.30;63.36;99332.44;7312103;19;129146;-40
2022/10/16 05:33:09;;;;;;;;;;;;;;;21.27;63.25;99333.53;7312389;19;130043;-41
2022/10/16 05:35:34;;;;;;;;;;;;;;;21.27;63.98;99332.72;7307760;19;129006;-36
2022/10/16 05:37:59;;;;;;;;;;;;;;;21.27;63.45;99320.47;7310736;19;129525;-40
2022/10/16 05:40:24;;;;;;;;;;;;;;;21.29;63.35;99321.16;7308202;19;131148;-40
2022/10/16 05:42:54;;;;;;;;;;;;;;;21.27;63.44;99323.06;7310400;19;131158;-41
2022/10/16 05:45:19;;;;;;;;;;;;;;;21.27;63.81;99323.06;7307980;19;129975;-40
2022/10/16 05:47:44;;;;;;;;;;;;;;;21.29;63.58;99334.22;7306256;19;129684;-39
2022/10/16 05:50:09;;;;;;;;;;;;;;;21.27;63.51;99333.53;7311983;19;130448;-38
2022/10/16 05:52:35;;;;;;;;;;;;;;;21.27;63.34;99344.00;7310945;19;130823;-39
2022/10/16 05:55:00;;;;;;;;;;;;;;;21.26;63.65;99351.97;7309093;19;129600;-39
2022/10/16 05:57:25;;;;;;;;;;;;;;;21.28;63.32;99366.59;7307488;19;129539;-37
2022/10/16 05:59:51;;;;;;;;;;;;;;;21.31;63.26;99363.66;7310675;19;129322;-40
2022/10/16 06:02:16;;;;;;;;;;;;;;;21.30;62.99;99354.19;7309206;19;130461;-36
2022/10/16 06:04:41;;;;;;;;;;;;;;;21.27;64.03;99364.91;7311786;19;129064;-41
2022/10/16 06:07:07;;;;;;;;;;;;;;;21.32;64.00;99361.88;7310495;19;130171;-38
2022/10/16 06:09:32;;;;;;;;;;;;;;;21.31;63.63;99360.22;7312585;19;130253;-40
2022/10/16 06:11:58;;;;;;;;;;;;;;;21.30;63.22;99364.66;7310113;19;130003;-40
2022/10/16 06:14:23;;;;;;;;;;;;;;;21.31;63.90;99368.91;7312223;19;129110;-38
2022/10/16 06:16:48;;;;;;;;;;;;;;;21.26;64.03;99376.34;7307145;19;129766;-38
2022/10/16 06:19:15;;;;;;;;;;;;;;;21.27;63.96;99380.59;7312658;19;130154;-39
2022/10/16 06:21:40;;;;;;;;;;;;;;;21.29;64.00;99378.69;7310818;19;130354;-37
2022/10/16 06:24:05;;;;;;;;;;;;;;;21.29;63.32;99388.28;7312351;19;129212;-38
2022/10/16 06:26:31;;;;;;;;;;;;;;;21.30;63.49;99390.81;7309852;19;129115;-38
2022/10/16 06:28:57;;;;;;;;;;;;;;;21.29;63.98;99399.59;7311348;19;130199;-39
2022/10/16 06:31:22;;;;;;;;;;;;;;;21.26;63.92;99394.66;7312039;19;130294;-36
2022/10/16 06:33:50;;;;;;;;;;;;;;;21.25;63.49;99393.00;7309663;19;129154;-39
2022/10/16 06:36:16;;;;;;;;;;;;;;;21.28;64.03;99392.72;7311894;19;129588;-38
2022/10/16 06:38:42;;;;;;;;;;;;;;;21.26;63.86;99394.66;7309270;19;130822;-37
2022/10/16 06:41:09;;;;;;;;;;;;;;;21.32;63.58;99394.06;7308438;19;129167;-39
2022/10/16 06:43:37;;;;;;;;;;;;;;;21.20;63.84;99390.00;7310059;19;128896;-40
2022/10/16 06:46:03;;;;;;;;;;;;;;;21.30;63.46;99406.50;7310094;19;128956;-38
2022/10/16 06:48:29;;;;;;;;;;;;;;;21.32;63.68;99415.00;7310504;19;130607;-40
2022/10/16 06:51:00;;;;;;;;;;;;;;;21.33;63.90;99411.44;7309434;19;129599;-38
2022/10/16 06:53:26;;;;;;;;;;;;;;;21.18;63.84;99397.16;7310514;19;129470;-37
2022/10/16 06:55:51;;;;;;;;;;;;;;;21.32;63.81;99415.00;7310946;19;129355;-38
2022/10/16 06:58:16;;;;;;;;;;;;;;;21.28;64.04;99424.09;7309986;19;129282;-36
2022/10/16 07:00:41;;;;;;;;;;;;;;;21.31;63.39;99431.66;7307121;19;130239;-39
2022/10/16 07:03:07;;;;;;;;;;;;;;;21.29;63.25;99425.75;7307756;19;128956;-40
2022/10/16 07:05:37;;;;;;;;;;;;;;;21.30;63.68;99431.81;7306714;19;130963;-38
2022/10/16 07:08:04;;;;;;;;;;;;;;;21.28;64.11;99436.34;7307748;19;130095;-39
2022/10/16 07:10:30;;;;;;;;;;;;;;;21.31;63.50;99439.50;7310190;19;131415;-38
2022/10/16 07:12:55;;;;;;;;;;;;;;;21.29;63.61;99435.38;7308707;19;128802;-38
2022/10/16 07:15:20;;;;;;;;;;;;;;;21.27;63.89;99435.50;7310333;19;131262;-39
2022/10/16 07:17:46;;;;;;;;;;;;;;;21.26;63.95;99446.94;7307029;19;130245;-37
2022/10/16 07:20:11;;;;;;;;;;;;;;;21.21;63.53;99433.47;7308477;19;130572;-41
2022/10/16 07:22:36;;;;;;;;;;;;;;;21.28;63.38;99455.47;7309281;19;129086;-39
2022/10/16 07:25:01;;;;;;;;;;;;;;;21.29;63.49;99462.34;7309434;19;128944;-38
2022/10/16 07:27:28;;;;;;;;;;;;;;;21.29;64.06;99467.56;7304233;19;129833;-39
2022/10/16 07:29:53;;;;;;;;;;;;;;;21.31;63.25;99468.25;7308742;19;129581;-39
2022/10/16 07:32:18;;;;;;;;;;;;;;;21.29;63.28;99467.56;7308321;19;128901;-39
2022/10/16 07:34:43;;;;;;;;;;;;;;;21.28;64.21;99471.16;7308798;19;129195;-40
2022/10/16 07:37:08;;;;;;;;;;;;;;;21.25;63.48;99481.91;7306914;19;130188;-39
2022/10/16 07:39:34;;;;;;;;;;;;;;;21.28;64.07;99486.03;7308300;19;129241;-39
2022/10/16 07:41:59;;;;;;;;;;;;;;;21.30;63.68;99495.41;7306398;19;129158;-39
2022/10/16 07:44:24;;;;;;;;;;;;;;;21.24;64.16;99484.63;7308851;19;129622;-39
2022/10/16 07:46:49;;;;;;;;;;;;;;;21.30;63.48;99489.31;7307378;19;129573;-40
2022/10/16 07:49:15;;;;;;;;;;;;;;;21.28;63.58;99494.69;7307676;19;129690;-38
2022/10/16 07:51:40;;;;;;;;;;;;;;;21.27;63.30;99490.41;7313038;19;129394;-40
2022/10/16 07:54:05;;;;;;;;;;;;;;;21.28;63.45;99497.31;7315998;19;129344;-38
2022/10/16 07:56:30;;;;;;;;;;;;;;;21.29;64.01;99503.34;7313478;19;130147;-40
2022/10/16 07:58:56;;;;;;;;;;;;;;;21.27;63.88;99505.31;7315146;19;129573;-39
2022/10/16 08:01:21;;;;;;;;;;;;;;;21.29;63.64;99498.13;7311248;19;129124;-38
2022/10/16 08:03:50;;;;;;;;;;;;;;;21.29;63.48;99503.34;7315323;19;128859;-38
2022/10/16 08:06:16;;;;;;;;;;;;;;;21.31;63.84;99493.59;7313759;19;131162;-37
2022/10/16 08:08:41;;;;;;;;;;;;;;;21.27;64.21;99485.19;7316816;19;129667;-40
2022/10/16 08:11:07;;;;;;;;;;;;;;;21.29;64.25;99478.03;7315938;19;129881;-39
2022/10/16 08:13:33;;;;;;;;;;;;;;;21.28;64.20;99475.56;7315819;19;130126;-40
2022/10/16 08:15:59;;;;;;;;;;;;;;;21.27;63.75;99485.19;7315010;19;130308;-39
2022/10/16 08:18:24;;;;;;;;;;;;;;;21.28;64.03;99486.84;7314615;19;129610;-39
2022/10/16 08:20:57;;;;;;;;;;;;;;;21.29;63.59;99493.72;7314579;19;129589;-37
2022/10/16 08:23:22;;;;;;;;;;;;;;;21.26;63.39;99485.34;7314489;19;128996;-38
2022/10/16 08:25:47;;;;;;;;;;;;;;;21.33;63.39;99495.09;7316299;19;130043;-40
2022/10/16 08:28:12;;;;;;;;;;;;;;;21.30;63.59;99490.16;7311570;19;130058;-39
2022/10/16 08:30:38;;;;;;;;;;;;;;;21.30;63.60;99494.56;7314370;19;129666;-37
2022/10/16 08:33:03;;;;;;;;;;;;;;;21.29;64.05;99498.13;7314796;19;129065;-39
2022/10/16 08:35:29;;;;;;;;;;;;;;;21.24;64.01;99498.53;7314348;19;129993;-40
2022/10/16 08:37:54;;;;;;;;;;;;;;;21.28;63.51;99502.53;7310761;19;130136;-38
2022/10/16 08:40:23;;;;;;;;;;;;;;;21.28;64.06;99507.78;7311707;19;128918;-39
2022/10/16 08:43:01;;;;;;;;;;;;;;;21.30;63.69;99511.09;7313899;19;128943;-38
2022/10/16 08:45:43;;;;;;;;;;;;;;;21.28;63.51;99513.00;7313871;19;130167;-38
2022/10/16 08:48:08;;;;;;;;;;;;;;;21.27;64.06;99511.34;7313542;19;129376;-38
2022/10/16 08:50:36;;;;;;;;;;;;;;;21.31;63.64;99517.94;7313699;19;128893;-39
2022/10/16 08:53:03;;;;;;;;;;;;;;;21.29;63.70;99500.72;7313995;19;129205;-39
2022/10/16 08:55:50;;;;;;;;;;;;;;;21.29;63.49;99498.94;7314499;19;130224;-39
2022/10/16 08:58:23;;;;;;;;;;;;;;;21.31;63.71;99506.66;7313976;19;130611;-37
2022/10/16 09:00:53;;;;;;;;;;;;;;;21.31;63.42;99497.03;7310959;19;129194;-40
2022/10/16 09:03:31;;;;;;;;;;;;;;;21.31;63.84;99499.66;7312622;19;129144;-38
2022/10/16 09:06:25;;;;;;;;;;;;;;;21.31;63.81;99497.03;7312506;19;129468;-40
2022/10/16 09:09:08;;;;;;;;;;;;;;;21.28;63.63;99502.53;7312789;19;130592;-39
2022/10/16 09:11:53;;;;;;;;;;;;;;;21.31;63.76;99497.03;7311604;19;128989;-36
2022/10/16 09:14:37;;;;;;;;;;;;;;;21.27;64.12;99495.66;7313850;19;128964;-39
2022/10/16 09:17:22;;;;;;;;;;;;;;;21.26;64.21;99493.19;7310815;19;130589;-38
2022/10/16 09:19:56;;;;;;;;;;;;;;;21.18;63.58;99465.13;7305974;19;147046;-39
2022/10/16 09:22:25;;;;;;;;;;;;;;;21.28;63.85;99492.09;7312170;19;129488;-37
2022/10/16 09:24:50;;;;;;;;;;;;;;;21.29;63.79;99514.66;7314072;19;129426;-40
2022/10/16 09:27:16;;;;;;;;;;;;;;;21.29;63.45;99514.66;7310285;19;129644;-38
2022/10/16 09:29:41;;;;;;;;;;;;;;;21.29;63.67;99514.66;7312893;19;129601;-39
2022/10/16 09:32:12;;;;;;;;;;;;;;;21.21;63.50;99501.44;7312405;19;129622;-39
2022/10/16 09:34:42;;;;;;;;;;;;;;;21.30;63.48;99520.72;7313117;19;129589;-40
2022/10/16 09:37:11;;;;;;;;;;;;;;;21.29;63.45;99519.03;7310354;19;130246;-40
2022/10/16 09:39:50;;;;;;;;;;;;;;;21.29;63.57;99530.34;7312402;19;129366;-38
2022/10/16 09:42:19;;;;;;;;;;;;;;;21.29;63.57;99525.09;7312341;19;128972;-40
2022/10/16 09:44:47;;;;;;;;;;;;;;;21.26;64.03;99525.38;7313418;19;130112;-39
2022/10/16 09:47:17;;;;;;;;;;;;;;;21.28;63.51;99531.31;7312288;19;129472;-40
2022/10/16 09:49:51;;;;;;;;;;;;;;;21.31;64.21;99527.56;7310061;19;130378;-39
2022/10/16 09:52:18;;;;;;;;;;;;;;;21.28;63.96;99526.06;7312079;19;129039;-37
2022/10/16 09:54:50;;;;;;;;;;;;;;;21.32;63.68;99531.84;7312920;19;130015;-36
2022/10/16 09:57:16;;;;;;;;;;;;;;;21.28;63.56;99543.53;7309551;19;129438;-37
2022/10/16 09:59:48;;;;;;;;;;;;;;;21.31;63.64;99536.25;7312714;19;129587;-40
2022/10/16 10:02:14;;;;;;;;;;;;;;;21.28;63.73;99544.38;7311031;19;128983;-41
2022/10/16 10:04:51;;;;;;;;;;;;;;;21.29;63.93;99551.25;7311375;19;128926;-39
2022/10/16 10:07:38;;;;;;;;;;;;;;;21.24;63.65;99531.69;7309579;19;131246;-37
2022/10/16 10:10:05;;;;;;;;;;;;;;;21.29;63.44;99540.78;7309810;19;130073;-39
2022/10/16 10:12:36;;;;;;;;;;;;;;;21.30;64.09;99547.69;7310258;19;129381;-40
2022/10/16 10:15:06;;;;;;;;;;;;;;;21.30;63.47;99547.69;7309684;19;129037;-37
2022/10/16 10:17:31;;;;;;;;;;;;;;;21.28;63.81;99549.63;7308246;19;130626;-39
2022/10/16 10:19:58;;;;;;;;;;;;;;;21.31;63.77;99549.31;7312803;19;131745;-37
2022/10/16 10:22:29;;;;;;;;;;;;;;;21.27;63.90;99558.41;7310611;19;129410;-37
2022/10/16 10:24:55;;;;;;;;;;;;;;;21.27;63.75;99566.25;7310883;19;129382;-38
2022/10/16 10:27:22;;;;;;;;;;;;;;;21.28;63.67;99567.91;7307827;19;131473;-39
2022/10/16 10:29:54;;;;;;;;;;;;;;;21.29;63.87;99563.50;7309709;19;129587;-38
2022/10/16 10:32:21;;;;;;;;;;;;;;;21.26;63.65;99569.84;7311219;19;128829;-38
2022/10/16 10:34:47;;;;;;;;;;;;;;;21.26;64.14;99564.59;7311071;19;129462;-39
2022/10/16 10:37:37;;;;;;;;;;;;;;;21.26;64.29;99575.06;7310361;19;129231;-38
2022/10/16 10:40:05;;;;;;;;;;;;;;;21.30;64.08;99568.59;7310686;19;129840;-38
2022/10/16 10:42:36;;;;;;;;;;;;;;;21.29;63.37;99564.31;7310298;19;129322;-39
2022/10/16 10:45:04;;;;;;;;;;;;;;;21.31;63.56;99565.03;7311959;19;129425;-39
2022/10/16 10:47:50;;;;;;;;;;;;;;;21.29;63.95;99569.56;7307296;19;130192;-40
2022/10/16 10:50:18;;;;;;;;;;;;;;;21.30;63.63;99578.22;7310801;19;130403;-39
2022/10/16 10:52:58;;;;;;;;;;;;;;;21.26;64.43;99575.06;7312285;19;129030;-40
2022/10/16 10:55:42;;;;;;;;;;;;;;;21.28;63.53;99578.38;7308674;19;131295;-40
2022/10/16 10:58:07;;;;;;;;;;;;;;;21.29;63.55;99582.63;7309821;19;131515;-37
2022/10/16 11:00:42;;;;;;;;;;;;;;;21.30;63.67;99584.31;7308825;19;130134;-39
2022/10/16 11:03:07;;;;;;;;;;;;;;;21.29;63.38;99581.78;7307705;19;129560;-39
2022/10/16 11:06:05;;;;;;;;;;;;;;;21.31;63.44;99585.94;7310126;19;130087;-37
2022/10/16 11:08:50;;;;;;;;;;;;;;;21.27;64.29;99574.09;7308347;19;130705;-39
2022/10/16 11:11:18;;;;;;;;;;;;;;;21.21;64.24;99556.34;7308928;19;129654;-38
2022/10/16 11:13:44;;;;;;;;;;;;;;;21.27;64.25;99571.47;7308237;19;130499;-40
2022/10/16 11:16:18;;;;;;;;;;;;;;;21.28;64.14;99574.94;7308454;19;131155;-39
2022/10/16 11:18:49;;;;;;;;;;;;;;;21.29;63.81;99568.72;7310837;19;129731;-40
2022/10/16 11:21:17;;;;;;;;;;;;;;;21.19;63.83;99554.84;7308939;19;131257;-39
2022/10/16 11:23:46;;;;;;;;;;;;;;;21.22;64.14;99554.56;7309421;19;130271;-40
2022/10/16 11:26:19;;;;;;;;;;;;;;;21.33;63.82;99570.09;7311563;19;129501;-39
2022/10/16 11:28:49;;;;;;;;;;;;;;;21.32;63.84;99577.13;7316400;19;128984;-40
2022/10/16 11:31:21;;;;;;;;;;;;;;;21.31;64.17;99566.81;7316155;19;130478;-38
2022/10/16 11:33:54;;;;;;;;;;;;;;;21.30;64.52;99579.06;7316402;19;129179;-39
2022/10/16 11:36:22;;;;;;;;;;;;;;;21.27;63.99;99573.28;7314852;19;129103;-39
2022/10/16 11:39:17;;;;;;;;;;;;;;;21.29;64.28;99587.84;7315356;19;129533;-39
2022/10/16 11:41:48;;;;;;;;;;;;;;;21.30;63.75;99575.63;7311565;19;130435;-38
2022/10/16 11:44:34;;;;;;;;;;;;;;;21.30;63.71;99589.53;7316057;19;129161;-37
2022/10/16 11:47:18;;;;;;;;;;;;;;;21.26;64.25;99582.91;7313942;19;129502;-38
2022/10/16 11:49:44;;;;;;;;;;;;;;;21.28;64.07;99601.91;7315536;19;129222;-40
2022/10/16 11:52:15;;;;;;;;;;;;;;;21.27;64.11;99595.00;7314056;19;129170;-40
2022/10/16 11:54:45;;;;;;;;;;;;;;;21.27;63.52;99602.84;7316863;19;128980;-39
2022/10/16 11:57:33;;;;;;;;;;;;;;;21.31;64.02;99606.03;7314137;19;129552;-40
2022/10/16 12:00:05;;;;;;;;;;;;;;;21.29;63.79;99603.53;7313480;19;129249;-38
2022/10/16 12:02:30;;;;;;;;;;;;;;;21.28;63.97;99604.53;7313607;19;130248;-38
2022/10/16 12:05:14;;;;;;;;;;;;;;;21.29;64.29;99611.41;7315942;19;129415;-40
2022/10/16 12:07:47;;;;;;;;;;;;;;;21.20;63.80;99591.31;7313600;19;129124;-39
2022/10/16 12:10:22;;;;;;;;;;;;;;;21.28;63.59;99612.38;7317529;19;130380;-38
2022/10/16 12:12:47;;;;;;;;;;;;;;;21.28;64.42;99607.13;7313942;19;130401;-41
2022/10/16 12:15:22;;;;;;;;;;;;;;;21.28;64.33;99601.06;7316548;19;128972;-38
2022/10/16 12:17:47;;;;;;;;;;;;;;;21.26;64.07;99603.00;7314969;19;129134;-39
2022/10/16 12:20:13;;;;;;;;;;;;;;;21.28;64.46;99611.53;7315496;19;129119;-36
2022/10/16 12:22:47;;;;;;;;;;;;;;;21.29;63.89;99602.72;7313731;19;130313;-37
2022/10/16 12:25:20;;;;;;;;;;;;;;;21.26;64.69;99593.38;7313826;19;130287;-39
2022/10/16 12:27:53;;;;;;;;;;;;;;;21.29;64.36;99603.53;7313133;19;129663;-40
2022/10/16 12:30:21;;;;;;;;;;;;;;;21.30;63.73;99600.00;7315252;19;129720;-38
2022/10/16 12:32:53;;;;;;;;;;;;;;;21.31;63.56;99609.47;7315385;19;130108;-39
2022/10/16 12:35:23;;;;;;;;;;;;;;;21.31;64.14;99616.47;7315492;19;128881;-41
2022/10/16 12:37:49;;;;;;;;;;;;;;;21.19;64.47;99597.50;7312596;19;129720;-37
2022/10/16 12:40:29;;;;;;;;;;;;;;;21.28;64.43;99607.13;7315007;19;129887;-41